createdAt,value
2019-03-01T00:01:03.717Z,2.02
2019-03-01T00:03:31.247Z,2.03
2019-03-01T00:06:13.279Z,1.73
2019-03-01T00:08:44.709Z,2.80
2019-03-01T00:11:19.091Z,3.37
2019-03-01T00:14:04.083Z,5.20
2019-03-01T00:16:51.720Z,3.43
2019-03-01T00:19:30.807Z,2.03
2019-03-01T00:22:09.433Z,1.30
2019-03-01T00:24:39.283Z,1.93
2019-03-01T00:27:18.080Z,2.10
2019-03-01T00:29:53.936Z,1.10
2019-03-01T00:32:38.983Z,3.03
2019-03-01T00:35:13.546Z,5.10
2019-03-01T00:37:43.431Z,2.80
2019-03-01T00:40:21.956Z,2.57
2019-03-01T00:43:00.664Z,2.67
2019-03-01T00:45:27.098Z,3.83
2019-03-01T00:47:53.519Z,2.43
2019-03-01T00:50:19.602Z,1.55
2019-03-01T00:52:45.755Z,1.93
2019-03-01T00:55:11.799Z,1.45
2019-03-01T00:57:37.855Z,1.77
2019-03-01T01:00:07.719Z,2.50
2019-03-01T01:02:33.800Z,2.87
2019-03-01T01:04:59.912Z,3.30
2019-03-01T01:07:25.971Z,2.70
2019-03-01T01:09:52.062Z,3.70
2019-03-01T01:12:18.119Z,3.47
2019-03-01T01:14:44.273Z,3.23
2019-03-01T01:17:10.339Z,3.10
2019-03-01T01:19:36.398Z,1.03
2019-03-01T01:22:02.447Z,1.63
2019-03-01T01:24:28.516Z,0.43
2019-03-01T01:26:54.567Z,1.03
2019-03-01T01:29:20.992Z,2.07
2019-03-01T01:31:47.432Z,1.30
2019-03-01T01:34:13.856Z,3.50
2019-03-01T01:36:39.959Z,3.83
2019-03-01T01:39:06.903Z,4.30
2019-03-01T01:41:33.336Z,3.43
2019-03-01T01:43:59.388Z,3.40
2019-03-01T01:46:25.464Z,2.53
2019-03-01T01:48:51.576Z,1.40
2019-03-01T01:51:17.731Z,1.60
2019-03-01T01:53:44.267Z,4.93
2019-03-01T01:56:10.327Z,1.80
2019-03-01T01:58:36.383Z,1.85
2019-03-01T02:01:02.856Z,0.93
2019-03-01T02:03:29.224Z,2.90
2019-03-01T02:05:55.367Z,2.07
2019-03-01T02:08:21.425Z,2.73
2019-03-01T02:10:47.859Z,2.93
2019-03-01T02:13:13.915Z,4.70
2019-03-01T02:15:40.007Z,3.63
2019-03-01T02:18:06.438Z,3.67
2019-03-01T02:20:32.905Z,1.90
2019-03-01T02:22:58.956Z,1.10
2019-03-01T02:25:25.003Z,2.07
2019-03-01T02:27:51.069Z,0.70
2019-03-01T02:30:18.987Z,1.00
2019-03-01T02:32:45.095Z,0.87
2019-03-01T02:35:12.642Z,5.95
2019-03-01T02:37:39.273Z,5.50
2019-03-01T02:40:12.459Z,6.00
2019-03-01T02:42:39.049Z,4.85
2019-03-01T02:45:07.400Z,2.57
2019-03-01T02:47:34.366Z,3.60
2019-03-01T02:50:00.613Z,1.90
2019-03-01T02:52:26.763Z,2.43
2019-03-01T02:54:52.904Z,1.17
2019-03-01T02:57:19.061Z,1.20
2019-03-01T02:59:45.130Z,1.50
2019-03-01T03:02:11.346Z,1.23
2019-03-01T03:04:37.462Z,2.27
2019-03-01T03:07:05.594Z,4.40
2019-03-01T03:09:32.152Z,3.47
2019-03-01T03:11:58.992Z,9.10
2019-03-01T03:14:25.175Z,3.57
2019-03-01T03:16:51.590Z,6.70
2019-03-01T03:19:17.715Z,1.90
2019-03-01T03:21:43.856Z,1.90
2019-03-01T03:24:12.688Z,3.52
2019-03-01T03:26:40.474Z,1.05
2019-03-01T03:29:07.711Z,1.60
2019-03-01T03:31:34.270Z,1.65
2019-03-01T03:34:01.160Z,4.00
2019-03-01T03:36:27.441Z,6.90
2019-03-01T03:38:54.118Z,1.90
2019-03-01T03:41:21.030Z,5.20
2019-03-01T03:43:48.114Z,3.52
2019-03-01T03:46:15.720Z,3.30
2019-03-01T03:48:42.424Z,3.70
2019-03-01T03:51:11.677Z,0.98
2019-03-01T03:53:40.540Z,1.80
2019-03-01T03:56:09.123Z,1.23
2019-03-01T03:58:35.845Z,2.12
2019-03-01T04:01:02.835Z,1.27
2019-03-01T04:03:29.534Z,1.85
2019-03-01T04:06:00.111Z,5.00
2019-03-01T04:08:29.979Z,25.32
2019-03-01T04:10:58.208Z,24.57
2019-03-01T04:13:27.657Z,23.87
2019-03-01T04:16:00.038Z,23.33
2019-03-01T04:18:27.302Z,23.77
2019-03-01T04:20:56.665Z,21.87
2019-03-01T04:23:24.956Z,22.17
2019-03-01T04:25:53.346Z,21.73
2019-03-01T04:28:20.056Z,21.73
2019-03-01T04:30:46.555Z,21.47
2019-03-01T04:33:15.918Z,21.73
2019-03-01T04:35:42.504Z,23.93
2019-03-01T04:38:08.790Z,25.33
2019-03-01T04:40:39.726Z,25.67
2019-03-01T04:43:05.743Z,23.37
2019-03-01T04:45:31.834Z,23.37
2019-03-01T04:47:57.904Z,23.27
2019-03-01T04:50:23.971Z,21.30
2019-03-01T04:52:50.028Z,22.37
2019-03-01T04:55:18.475Z,24.03
2019-03-01T04:57:44.531Z,21.60
2019-03-01T05:00:13.196Z,21.83
2019-03-01T05:02:39.252Z,21.10
2019-03-01T05:05:05.456Z,24.57
2019-03-01T05:07:32.367Z,23.80
2019-03-01T05:09:58.420Z,23.37
2019-03-01T05:12:24.519Z,23.07
2019-03-01T05:14:50.699Z,21.57
2019-03-01T05:17:16.887Z,21.80
2019-03-01T05:19:43.043Z,21.27
2019-03-01T05:22:09.099Z,21.97
2019-03-01T05:24:35.163Z,21.07
2019-03-01T05:27:01.237Z,22.10
2019-03-01T05:29:27.488Z,22.67
2019-03-01T05:31:53.539Z,21.57
2019-03-01T05:34:19.611Z,23.17
2019-03-01T05:36:45.671Z,24.90
2019-03-01T05:39:11.719Z,23.87
2019-03-01T05:41:37.783Z,23.73
2019-03-01T05:44:03.840Z,24.03
2019-03-01T05:46:29.919Z,22.70
2019-03-01T05:48:57.141Z,23.17
2019-03-01T05:51:23.254Z,22.70
2019-03-01T05:53:49.311Z,23.80
2019-03-01T05:56:15.367Z,22.50
2019-03-01T05:58:41.471Z,22.10
2019-03-01T06:01:11.335Z,24.43
2019-03-01T06:03:53.011Z,24.83
2019-03-01T06:06:39.680Z,24.20
2019-03-01T06:09:18.275Z,28.47
2019-03-01T06:11:51.143Z,29.37
2019-03-01T06:14:21.124Z,27.37
2019-03-01T06:16:54.006Z,26.47
2019-03-01T06:19:35.680Z,25.53
2019-03-01T06:22:27.128Z,25.87
2019-03-01T06:25:23.280Z,24.00
2019-03-01T06:27:53.131Z,26.50
2019-03-01T06:30:24.623Z,27.60
2019-03-01T06:33:00.263Z,22.77
2019-03-01T06:35:36.047Z,28.23
2019-03-01T06:38:31.227Z,27.33
2019-03-01T06:41:26.513Z,32.90
2019-03-01T06:44:19.577Z,27.43
2019-03-01T06:47:11.240Z,22.50
2019-03-01T06:49:57.602Z,14.03
2019-03-01T06:52:23.710Z,21.43
2019-03-01T06:54:49.971Z,21.70
2019-03-01T06:57:16.075Z,23.00
2019-03-01T06:59:42.152Z,24.77
2019-03-01T07:02:10.132Z,21.43
2019-03-01T07:04:36.184Z,22.97
2019-03-01T07:07:02.264Z,23.83
2019-03-01T07:09:28.337Z,25.87
2019-03-01T07:11:54.378Z,23.63
2019-03-01T07:14:20.437Z,23.27
2019-03-01T07:16:46.735Z,23.47
2019-03-01T07:19:12.799Z,23.50
2019-03-01T07:21:38.909Z,23.57
2019-03-01T07:24:05.043Z,21.77
2019-03-01T07:26:31.259Z,22.20
2019-03-01T07:28:57.312Z,22.13
2019-03-01T07:31:23.359Z,22.07
2019-03-01T07:33:49.415Z,25.53
2019-03-01T07:36:15.468Z,23.43
2019-03-01T07:38:41.527Z,23.37
2019-03-01T07:41:07.664Z,23.73
2019-03-01T07:43:33.744Z,24.57
2019-03-01T07:45:59.815Z,21.90
2019-03-01T07:48:25.884Z,22.47
2019-03-01T07:50:52.458Z,21.00
2019-03-01T07:53:19.925Z,22.77
2019-03-01T07:55:46.692Z,21.93
2019-03-01T07:58:13.079Z,22.87
2019-03-01T08:00:39.232Z,21.77
2019-03-01T08:03:05.412Z,21.37
2019-03-01T08:05:31.492Z,22.97
2019-03-01T08:08:02.573Z,23.17
2019-03-01T08:10:25.511Z,22.60
2019-03-01T08:12:51.575Z,23.83
2019-03-01T08:15:17.650Z,22.67
2019-03-01T08:17:43.743Z,22.07
2019-03-01T08:20:12.861Z,21.97
2019-03-01T08:22:48.089Z,23.50
2019-03-01T08:25:08.879Z,22.20
2019-03-01T08:27:35.039Z,21.50
2019-03-01T08:30:01.103Z,23.77
2019-03-01T08:32:27.380Z,22.23
2019-03-01T08:34:55.138Z,22.63
2019-03-01T08:37:21.194Z,22.53
2019-03-01T08:39:49.591Z,23.23
2019-03-01T08:42:15.248Z,23.10
2019-03-01T08:44:41.305Z,23.03
2019-03-01T08:47:07.356Z,23.23
2019-03-01T08:49:33.424Z,21.33
2019-03-01T08:52:01.412Z,22.20
2019-03-01T08:54:27.646Z,21.83
2019-03-01T08:56:53.861Z,22.07
2019-03-01T08:59:19.925Z,21.33
2019-03-01T09:01:45.995Z,21.43
2019-03-01T09:04:16.991Z,23.33
2019-03-01T09:06:41.814Z,23.30
2019-03-01T09:09:08.764Z,23.63
2019-03-01T09:11:35.039Z,24.17
2019-03-01T09:14:01.104Z,25.00
2019-03-01T09:16:27.168Z,24.80
2019-03-01T09:18:53.246Z,22.33
2019-03-01T09:21:19.301Z,22.70
2019-03-01T09:23:47.869Z,24.90
2019-03-01T09:26:16.558Z,22.20
2019-03-01T09:28:41.294Z,22.87
2019-03-01T09:31:07.545Z,22.47
2019-03-01T09:33:33.744Z,22.33
2019-03-01T09:36:01.700Z,23.80
2019-03-01T09:38:27.786Z,23.33
2019-03-01T09:40:54.611Z,24.70
2019-03-01T09:43:21.020Z,23.27
2019-03-01T09:45:48.641Z,22.97
2019-03-01T09:48:15.152Z,24.00
2019-03-01T09:50:41.201Z,22.20
2019-03-01T09:53:07.379Z,21.67
2019-03-01T09:55:34.768Z,21.93
2019-03-01T09:58:01.653Z,22.07
2019-03-01T10:00:37.553Z,22.20
2019-03-01T10:03:03.728Z,22.83
2019-03-01T10:05:29.785Z,23.53
2019-03-01T10:07:55.856Z,23.40
2019-03-01T10:10:24.663Z,24.23
2019-03-01T10:12:50.808Z,24.00
2019-03-01T10:15:16.861Z,24.07
2019-03-01T10:17:42.935Z,24.03
2019-03-01T10:20:11.401Z,21.60
2019-03-01T10:22:37.457Z,21.90
2019-03-01T10:25:06.639Z,22.00
2019-03-01T10:27:32.824Z,21.93
2019-03-01T10:30:00.021Z,22.33
2019-03-01T10:32:26.159Z,23.87
2019-03-01T10:34:52.251Z,24.83
2019-03-01T10:37:18.441Z,23.47
2019-03-01T10:39:44.517Z,23.53
2019-03-01T10:42:10.571Z,23.83
2019-03-01T10:44:36.645Z,23.80
2019-03-01T10:47:03.009Z,23.70
2019-03-01T10:49:29.068Z,22.33
2019-03-01T10:51:55.151Z,21.60
2019-03-01T10:54:21.216Z,22.40
2019-03-01T10:56:47.287Z,21.90
2019-03-01T10:59:13.350Z,22.10
2019-03-01T11:01:39.504Z,22.67
2019-03-01T11:04:05.566Z,24.67
2019-03-01T11:06:31.644Z,24.10
2019-03-01T11:08:57.693Z,23.80
2019-03-01T11:11:23.747Z,23.60
2019-03-01T11:13:49.816Z,25.30
2019-03-01T11:16:15.875Z,22.60
2019-03-01T11:18:41.939Z,22.73
2019-03-01T11:21:08.048Z,21.63
2019-03-01T11:23:34.095Z,23.67
2019-03-01T11:26:00.196Z,22.63
2019-03-01T11:28:26.271Z,22.57
2019-03-01T11:30:52.438Z,21.70
2019-03-01T11:33:18.599Z,22.87
2019-03-01T11:35:44.675Z,24.20
2019-03-01T11:38:10.740Z,24.50
2019-03-01T11:40:38.177Z,26.70
2019-03-01T11:43:04.739Z,24.00
2019-03-01T11:45:31.005Z,24.67
2019-03-01T11:47:57.069Z,23.40
2019-03-01T11:50:23.640Z,22.43
2019-03-01T11:52:49.714Z,22.10
2019-03-01T11:55:15.980Z,25.53
2019-03-01T11:57:42.072Z,22.00
2019-03-01T12:00:12.615Z,22.53
2019-03-01T12:02:38.727Z,22.30
2019-03-01T12:05:08.193Z,26.83
2019-03-01T12:07:34.279Z,23.53
2019-03-01T12:10:00.336Z,26.73
2019-03-01T12:12:26.625Z,25.73
2019-03-01T12:14:52.939Z,23.27
2019-03-01T12:17:19.019Z,23.70
2019-03-01T12:19:45.174Z,21.90
2019-03-01T12:22:17.119Z,21.63
2019-03-01T12:24:40.222Z,22.07
2019-03-01T12:27:06.504Z,22.27
2019-03-01T12:29:32.587Z,21.57
2019-03-01T12:31:58.687Z,23.03
2019-03-01T12:34:24.748Z,23.30
2019-03-01T12:36:50.816Z,24.17
2019-03-01T12:39:17.023Z,24.03
2019-03-01T12:41:43.079Z,23.93
2019-03-01T12:44:09.140Z,25.60
2019-03-01T12:46:35.191Z,24.70
2019-03-01T12:49:01.317Z,22.83
2019-03-01T12:51:27.433Z,21.87
2019-03-01T12:53:53.583Z,24.13
2019-03-01T12:56:19.667Z,22.87
2019-03-01T12:58:45.823Z,23.13
2019-03-01T13:01:11.896Z,22.33
2019-03-01T13:03:40.653Z,26.43
2019-03-01T13:06:05.958Z,25.17
2019-03-01T13:08:32.104Z,25.20
2019-03-01T13:10:58.177Z,23.97
2019-03-01T13:13:24.453Z,24.77
2019-03-01T13:15:52.296Z,28.40
2019-03-01T13:18:18.612Z,25.60
2019-03-01T13:20:44.895Z,22.47
2019-03-01T13:23:10.949Z,24.37
2019-03-01T13:25:37.121Z,22.77
2019-03-01T13:28:03.195Z,24.80
2019-03-01T13:30:32.646Z,24.13
2019-03-01T13:32:58.933Z,24.50
2019-03-01T13:35:25.992Z,24.90
2019-03-01T13:37:55.525Z,25.77
2019-03-01T13:40:24.395Z,26.60
2019-03-01T13:42:50.702Z,27.00
2019-03-01T13:45:21.599Z,25.40
2019-03-01T13:47:47.648Z,24.57
2019-03-01T13:50:19.195Z,24.90
2019-03-01T13:52:45.283Z,22.90
2019-03-01T13:55:14.734Z,27.40
2019-03-01T13:57:40.635Z,26.40
2019-03-01T14:00:12.936Z,22.90
2019-03-01T14:02:39.072Z,24.43
2019-03-01T14:05:07.175Z,24.57
2019-03-01T14:07:33.227Z,24.13
2019-03-01T14:10:00.767Z,24.40
2019-03-01T14:12:27.243Z,24.50
2019-03-01T14:14:53.295Z,23.60
2019-03-01T14:17:21.172Z,26.30
2019-03-01T14:19:47.483Z,22.27
2019-03-01T14:22:14.031Z,22.30
2019-03-01T14:24:40.316Z,25.00
2019-03-01T14:27:06.372Z,24.40
2019-03-01T14:29:32.420Z,22.07
2019-03-01T14:31:58.472Z,24.97
2019-03-01T14:34:24.636Z,24.03
2019-03-01T14:36:50.771Z,23.60
2019-03-01T14:39:16.981Z,25.03
2019-03-01T14:41:43.132Z,24.67
2019-03-01T14:44:09.190Z,23.67
2019-03-01T14:46:35.247Z,23.93
2019-03-01T14:49:01.299Z,22.50
2019-03-01T14:51:27.390Z,22.67
2019-03-01T14:53:53.536Z,24.00
2019-03-01T14:56:23.291Z,22.40
2019-03-01T14:59:08.056Z,21.97
2019-03-01T15:01:49.803Z,23.77
2019-03-01T15:04:16.208Z,24.67
2019-03-01T15:06:42.556Z,26.90
2019-03-01T15:09:08.784Z,24.07
2019-03-01T15:11:34.844Z,24.67
2019-03-01T15:14:01.007Z,28.47
2019-03-01T15:16:27.100Z,24.40
2019-03-01T15:18:53.167Z,22.97
2019-03-01T15:21:19.267Z,25.70
2019-03-01T15:23:45.371Z,24.20
2019-03-01T15:26:11.539Z,26.00
2019-03-01T15:28:43.303Z,22.73
2019-03-01T15:31:09.361Z,23.50
2019-03-01T15:33:35.424Z,26.63
2019-03-01T15:36:01.503Z,23.17
2019-03-01T15:38:28.876Z,26.17
2019-03-01T15:40:55.139Z,24.13
2019-03-01T15:43:21.207Z,23.73
2019-03-01T15:45:47.348Z,24.27
2019-03-01T15:48:18.046Z,24.47
2019-03-01T15:50:44.192Z,22.53
2019-03-01T15:53:10.255Z,22.43
2019-03-01T15:55:36.312Z,22.77
2019-03-01T15:58:02.379Z,22.30
2019-03-01T16:00:29.441Z,22.60
2019-03-01T16:02:56.520Z,22.27
2019-03-01T16:05:22.661Z,24.07
2019-03-01T16:07:48.807Z,25.20
2019-03-01T16:10:18.988Z,24.80
2019-03-01T16:12:45.048Z,23.07
2019-03-01T16:15:15.027Z,26.10
2019-03-01T16:17:41.096Z,24.13
2019-03-01T16:20:09.871Z,24.00
2019-03-01T16:22:35.941Z,22.23
2019-03-01T16:25:04.514Z,25.40
2019-03-01T16:27:30.688Z,22.07
2019-03-01T16:29:56.829Z,22.30
2019-03-01T16:32:22.892Z,25.40
2019-03-01T16:34:48.990Z,23.93
2019-03-01T16:37:15.257Z,23.90
2019-03-01T16:39:41.332Z,23.77
2019-03-01T16:42:07.429Z,25.43
2019-03-01T16:44:33.555Z,23.60
2019-03-01T16:46:59.628Z,24.47
2019-03-01T16:49:27.182Z,23.00
2019-03-01T16:51:53.996Z,22.60
2019-03-01T16:54:20.897Z,24.83
2019-03-01T16:56:46.955Z,23.00
2019-03-01T16:59:13.004Z,23.40
2019-03-01T17:01:40.646Z,23.43
2019-03-01T17:04:06.932Z,25.80
2019-03-01T17:06:33.013Z,24.73
2019-03-01T17:08:59.172Z,23.87
2019-03-01T17:11:25.231Z,25.60
2019-03-01T17:13:51.341Z,26.43
2019-03-01T17:16:20.511Z,25.23
2019-03-01T17:18:47.756Z,23.50
2019-03-01T17:21:15.627Z,24.47
2019-03-01T17:23:41.355Z,26.47
2019-03-01T17:26:07.512Z,23.77
2019-03-01T17:28:33.574Z,26.47
2019-03-01T17:30:59.632Z,24.13
2019-03-01T17:33:25.693Z,25.30
2019-03-01T17:35:51.739Z,25.27
2019-03-01T17:38:17.907Z,24.03
2019-03-01T17:40:43.973Z,23.73
2019-03-01T17:43:10.020Z,23.50
2019-03-01T17:45:36.083Z,25.43
2019-03-01T17:48:02.135Z,26.23
2019-03-01T17:50:28.231Z,22.43
2019-03-01T17:52:54.283Z,24.87
2019-03-01T17:55:24.567Z,24.17
2019-03-01T17:57:51.067Z,24.93
2019-03-01T18:00:26.431Z,22.00
2019-03-01T18:02:53.318Z,23.40
2019-03-01T18:05:19.580Z,25.83
2019-03-01T18:07:45.663Z,24.93
2019-03-01T18:10:13.461Z,24.07
2019-03-01T18:12:39.598Z,24.10
2019-03-01T18:15:12.400Z,23.63
2019-03-01T18:17:39.223Z,23.27
2019-03-01T18:20:08.148Z,21.90
2019-03-01T18:22:34.227Z,22.30
2019-03-01T18:25:00.280Z,22.17
2019-03-01T18:27:26.332Z,21.87
2019-03-01T18:29:52.396Z,21.73
2019-03-01T18:32:18.495Z,21.70
2019-03-01T18:34:44.567Z,23.17
2019-03-01T18:37:19.177Z,23.40
2019-03-01T18:39:41.146Z,25.07
2019-03-01T18:42:06.739Z,23.63
2019-03-01T18:44:32.797Z,23.73
2019-03-01T18:46:58.857Z,23.00
2019-03-01T18:49:24.927Z,22.60
2019-03-01T18:51:50.980Z,22.27
2019-03-01T18:54:17.039Z,22.33
2019-03-01T18:56:43.100Z,22.73
2019-03-01T18:59:09.151Z,22.40
2019-03-01T19:01:35.220Z,20.93
2019-03-01T19:04:01.271Z,22.73
2019-03-01T19:06:29.249Z,22.30
2019-03-01T19:08:55.307Z,24.13
2019-03-01T19:11:21.376Z,23.13
2019-03-01T19:13:47.431Z,24.57
2019-03-01T19:16:13.591Z,22.97
2019-03-01T19:18:39.682Z,22.70
2019-03-01T19:21:05.838Z,22.47
2019-03-01T19:23:32.437Z,23.33
2019-03-01T19:26:01.738Z,22.10
2019-03-01T19:28:27.687Z,22.27
2019-03-01T19:30:53.812Z,21.47
2019-03-01T19:33:19.896Z,21.17
2019-03-01T19:35:45.966Z,23.67
2019-03-01T19:38:12.057Z,24.73
2019-03-01T19:40:38.107Z,23.80
2019-03-01T19:43:06.946Z,23.97
2019-03-01T19:45:32.120Z,23.70
2019-03-01T19:48:02.053Z,23.57
2019-03-01T19:50:27.647Z,22.63
2019-03-01T19:52:53.695Z,21.47
2019-03-01T19:55:19.769Z,21.77
2019-03-01T19:57:45.843Z,23.43
2019-03-01T20:00:18.628Z,21.60
2019-03-01T20:02:44.765Z,22.87
2019-03-01T20:05:15.411Z,23.27
2019-03-01T20:07:41.572Z,24.80
2019-03-01T20:10:11.667Z,24.53
2019-03-01T20:12:40.516Z,22.97
2019-03-01T20:15:10.616Z,23.73
2019-03-01T20:17:44.056Z,24.03
2019-03-01T20:20:08.367Z,21.30
2019-03-01T20:22:34.419Z,22.50
2019-03-01T20:25:00.490Z,22.23
2019-03-01T20:27:26.543Z,21.77
2019-03-01T20:29:53.419Z,22.73
2019-03-01T20:32:19.679Z,23.27
2019-03-01T20:34:45.752Z,23.47
2019-03-01T20:37:11.802Z,24.20
2019-03-01T20:39:37.869Z,23.33
2019-03-01T20:42:03.927Z,24.43
2019-03-01T20:44:30.127Z,24.10
2019-03-01T20:46:56.196Z,24.57
2019-03-01T20:49:22.251Z,21.77
2019-03-01T20:51:48.294Z,23.20
2019-03-01T20:54:14.437Z,21.60
2019-03-01T20:56:40.491Z,22.10
2019-03-01T20:59:06.586Z,21.80
2019-03-01T21:01:33.791Z,22.97
2019-03-01T21:04:01.544Z,23.83
2019-03-01T21:06:28.665Z,24.53
2019-03-01T21:08:54.719Z,24.87
2019-03-01T21:11:25.328Z,23.97
2019-03-01T21:13:49.808Z,25.43
2019-03-01T21:16:15.873Z,23.47
2019-03-01T21:18:41.936Z,22.17
2019-03-01T21:21:07.995Z,22.83
2019-03-01T21:23:34.791Z,24.53
2019-03-01T21:26:00.955Z,21.50
2019-03-01T21:28:26.999Z,21.50
2019-03-01T21:30:55.687Z,22.23
2019-03-01T21:33:24.033Z,21.87
2019-03-01T21:35:51.148Z,23.83
2019-03-01T21:38:17.037Z,22.70
2019-03-01T21:40:43.100Z,23.50
2019-03-01T21:43:09.162Z,24.43
2019-03-01T21:45:35.215Z,23.60
2019-03-01T21:48:01.323Z,24.33
2019-03-01T21:50:27.486Z,22.47
2019-03-01T21:52:53.535Z,21.90
2019-03-01T21:55:24.824Z,21.57
2019-03-01T21:57:52.135Z,21.77
2019-03-01T22:00:28.951Z,22.47
2019-03-01T22:02:52.783Z,22.40
2019-03-01T22:05:19.563Z,24.37
2019-03-01T22:07:45.676Z,24.10
2019-03-01T22:10:13.236Z,22.63
2019-03-01T22:12:39.312Z,24.07
2019-03-01T22:15:25.830Z,23.50
2019-03-01T22:17:52.915Z,22.37
2019-03-01T22:20:20.071Z,21.30
2019-03-01T22:22:46.244Z,21.90
2019-03-01T22:25:13.199Z,21.40
2019-03-01T22:27:40.269Z,21.67
2019-03-01T22:30:09.927Z,21.47
2019-03-01T22:32:36.004Z,23.43
2019-03-01T22:35:04.011Z,23.03
2019-03-01T22:37:30.627Z,23.13
2019-03-01T22:39:56.683Z,22.80
2019-03-01T22:42:22.730Z,24.27
2019-03-01T22:44:49.283Z,23.30
2019-03-01T22:47:15.331Z,23.97
2019-03-01T22:49:41.411Z,20.93
2019-03-01T22:52:07.464Z,22.03
2019-03-01T22:54:33.519Z,21.93
2019-03-01T22:56:59.588Z,22.23
2019-03-01T22:59:25.667Z,24.17
2019-03-01T23:01:52.123Z,25.33
2019-03-01T23:04:18.185Z,23.93
2019-03-01T23:06:47.527Z,23.63
2019-03-01T23:09:13.971Z,23.70
2019-03-01T23:11:40.055Z,24.03
2019-03-01T23:14:06.108Z,25.33
2019-03-01T23:16:32.377Z,26.20
2019-03-01T23:18:58.427Z,22.07
2019-03-01T23:21:24.509Z,21.50
2019-03-01T23:23:50.568Z,23.13
2019-03-01T23:26:18.658Z,21.97
2019-03-01T23:28:44.668Z,23.83
2019-03-01T23:31:10.969Z,21.27
2019-03-01T23:33:37.027Z,26.93
2019-03-01T23:36:03.491Z,24.00
2019-03-01T23:38:29.551Z,25.30
2019-03-01T23:40:55.644Z,24.57
2019-03-01T23:43:21.819Z,24.63
2019-03-01T23:45:49.869Z,22.20
2019-03-01T23:48:15.858Z,24.03
2019-03-01T23:50:42.077Z,23.20
2019-03-01T23:53:08.231Z,22.13
2019-03-01T23:55:34.281Z,21.67
2019-03-01T23:58:06.000Z,21.27
